sensor_id;sensor_type;location;lat;lon;timestamp;pressure;altitude;pressure_sealevel;temperature;humidity
42587;BME280;28216;53.362;-6.288;2023-01-16T00:02:12;98944.75;;;3.82;100.00
42587;BME280;28216;53.362;-6.288;2023-01-16T00:04:37;98947.19;;;3.84;100.00
42587;BME280;28216;53.362;-6.288;2023-01-16T00:07:05;98947.34;;;3.82;100.00
42587;BME280;28216;53.362;-6.288;2023-01-16T00:09:31;98945.06;;;3.79;100.00
42587;BME280;28216;53.362;-6.288;2023-01-16T00:11:56;98956.56;;;3.77;100.00
42587;BME280;28216;53.362;-6.288;2023-01-16T00:14:22;98954.28;;;3.74;100.00
42587;BME280;28216;53.362;-6.288;2023-01-16T00:16:48;98955.25;;;3.73;100.00
42587;BME280;28216;53.362;-6.288;2023-01-16T00:19:13;98958.81;;;3.72;100.00
42587;BME280;28216;53.362;-6.288;2023-01-16T00:21:38;98950.69;;;3.67;100.00
42587;BME280;28216;53.362;-6.288;2023-01-16T00:24:04;98954.56;;;3.63;100.00
42587;BME280;28216;53.362;-6.288;2023-01-16T00:26:31;98953.25;;;3.59;100.00
42587;BME280;28216;53.362;-6.288;2023-01-16T00:28:57;98948.25;;;3.57;100.00
42587;BME280;28216;53.362;-6.288;2023-01-16T00:31:23;98949.69;;;3.51;100.00
42587;BME280;28216;53.362;-6.288;2023-01-16T00:33:50;98956.00;;;3.49;100.00
42587;BME280;28216;53.362;-6.288;2023-01-16T00:36:15;98953.41;;;3.49;100.00
42587;BME280;28216;53.362;-6.288;2023-01-16T00:38:41;98957.63;;;3.50;100.00
42587;BME280;28216;53.362;-6.288;2023-01-16T00:41:06;98951.63;;;3.49;100.00
42587;BME280;28216;53.362;-6.288;2023-01-16T00:43:32;98967.00;;;3.51;100.00
42587;BME280;28216;53.362;-6.288;2023-01-16T00:45:58;98957.16;;;3.55;100.00
42587;BME280;28216;53.362;-6.288;2023-01-16T00:48:24;98957.78;;;3.57;100.00
42587;BME280;28216;53.362;-6.288;2023-01-16T00:50:49;98958.13;;;3.62;100.00
42587;BME280;28216;53.362;-6.288;2023-01-16T00:53:15;98945.97;;;3.62;100.00
42587;BME280;28216;53.362;-6.288;2023-01-16T00:55:41;98956.34;;;3.62;100.00
42587;BME280;28216;53.362;-6.288;2023-01-16T00:58:10;98953.28;;;3.67;100.00
42587;BME280;28216;53.362;-6.288;2023-01-16T01:00:36;98955.56;;;3.70;100.00
42587;BME280;28216;53.362;-6.288;2023-01-16T01:03:03;98961.53;;;3.70;100.00
42587;BME280;28216;53.362;-6.288;2023-01-16T01:05:29;98963.31;;;3.70;100.00
42587;BME280;28216;53.362;-6.288;2023-01-16T01:07:54;98956.53;;;3.69;100.00
42587;BME280;28216;53.362;-6.288;2023-01-16T01:10:20;98967.41;;;3.72;100.00
42587;BME280;28216;53.362;-6.288;2023-01-16T01:12:46;98958.66;;;3.73;100.00
42587;BME280;28216;53.362;-6.288;2023-01-16T01:15:11;98951.69;;;3.74;100.00
42587;BME280;28216;53.362;-6.288;2023-01-16T01:17:37;98952.84;;;3.79;100.00
42587;BME280;28216;53.362;-6.288;2023-01-16T01:20:03;98960.13;;;3.84;100.00
42587;BME280;28216;53.362;-6.288;2023-01-16T01:22:28;98954.63;;;3.87;100.00
42587;BME280;28216;53.362;-6.288;2023-01-16T01:24:54;98949.94;;;3.91;100.00
42587;BME280;28216;53.362;-6.288;2023-01-16T01:27:19;98944.75;;;3.91;100.00
42587;BME280;28216;53.362;-6.288;2023-01-16T01:29:45;98955.63;;;3.94;100.00
42587;BME280;28216;53.362;-6.288;2023-01-16T01:32:10;98951.88;;;3.97;100.00
42587;BME280;28216;53.362;-6.288;2023-01-16T01:34:36;98948.66;;;3.95;100.00
42587;BME280;28216;53.362;-6.288;2023-01-16T01:37:03;98956.25;;;3.96;100.00
42587;BME280;28216;53.362;-6.288;2023-01-16T01:39:29;98961.28;;;3.98;100.00
42587;BME280;28216;53.362;-6.288;2023-01-16T01:41:55;98965.19;;;4.02;100.00
42587;BME280;28216;53.362;-6.288;2023-01-16T01:44:54;98970.69;;;3.99;100.00
42587;BME280;28216;53.362;-6.288;2023-01-16T01:50:24;98954.97;;;3.84;100.00
42587;BME280;28216;53.362;-6.288;2023-01-16T01:52:52;98952.03;;;3.87;100.00
42587;BME280;28216;53.362;-6.288;2023-01-16T01:55:20;98960.97;;;3.93;100.00
42587;BME280;28216;53.362;-6.288;2023-01-16T01:57:50;98961.44;;;3.96;100.00
42587;BME280;28216;53.362;-6.288;2023-01-16T02:00:22;98964.03;;;3.96;100.00
42587;BME280;28216;53.362;-6.288;2023-01-16T02:03:09;98953.19;;;3.93;100.00
42587;BME280;28216;53.362;-6.288;2023-01-16T02:05:42;98954.97;;;3.92;100.00
42587;BME280;28216;53.362;-6.288;2023-01-16T02:08:13;98959.97;;;3.86;100.00
42587;BME280;28216;53.362;-6.288;2023-01-16T02:13:06;98966.28;;;3.83;100.00
42587;BME280;28216;53.362;-6.288;2023-01-16T02:15:31;98966.28;;;3.75;100.00
42587;BME280;28216;53.362;-6.288;2023-01-16T02:17:58;98975.53;;;3.77;100.00
42587;BME280;28216;53.362;-6.288;2023-01-16T02:21:06;98965.97;;;3.86;100.00
42587;BME280;28216;53.362;-6.288;2023-01-16T02:26:45;98971.97;;;3.87;100.00
42587;BME280;28216;53.362;-6.288;2023-01-16T02:32:07;98971.91;;;3.70;100.00
42587;BME280;28216;53.362;-6.288;2023-01-16T02:35:14;98968.22;;;3.73;100.00
42587;BME280;28216;53.362;-6.288;2023-01-16T02:37:47;98982.81;;;3.74;100.00
42587;BME280;28216;53.362;-6.288;2023-01-16T02:40:30;98982.66;;;3.75;100.00
42587;BME280;28216;53.362;-6.288;2023-01-16T02:48:12;98988.81;;;3.74;100.00
42587;BME280;28216;53.362;-6.288;2023-01-16T02:50:47;98987.03;;;3.75;100.00
42587;BME280;28216;53.362;-6.288;2023-01-16T02:53:25;98977.78;;;3.80;100.00
42587;BME280;28216;53.362;-6.288;2023-01-16T02:55:58;98985.09;;;3.85;100.00
42587;BME280;28216;53.362;-6.288;2023-01-16T02:58:29;98984.13;;;3.78;100.00
42587;BME280;28216;53.362;-6.288;2023-01-16T03:00:58;98985.72;;;3.79;100.00
42587;BME280;28216;53.362;-6.288;2023-01-16T03:09:32;98985.19;;;3.67;100.00
42587;BME280;28216;53.362;-6.288;2023-01-16T03:11:42;98993.09;;;3.58;100.00
42587;BME280;28216;53.362;-6.288;2023-01-16T03:14:18;98998.09;;;3.51;100.00
42587;BME280;28216;53.362;-6.288;2023-01-16T03:22:22;98994.00;;;3.32;100.00
42587;BME280;28216;53.362;-6.288;2023-01-16T03:25:17;98982.63;;;3.25;100.00
42587;BME280;28216;53.362;-6.288;2023-01-16T03:27:47;98988.28;;;3.21;100.00
42587;BME280;28216;53.362;-6.288;2023-01-16T03:30:31;98990.69;;;3.14;100.00
42587;BME280;28216;53.362;-6.288;2023-01-16T03:33:20;98997.44;;;3.07;100.00
42587;BME280;28216;53.362;-6.288;2023-01-16T03:36:09;99001.16;;;3.04;100.00
42587;BME280;28216;53.362;-6.288;2023-01-16T03:38:38;99005.16;;;2.99;100.00
42587;BME280;28216;53.362;-6.288;2023-01-16T03:41:10;98998.81;;;2.93;100.00
42587;BME280;28216;53.362;-6.288;2023-01-16T03:43:38;99007.69;;;2.91;100.00
42587;BME280;28216;53.362;-6.288;2023-01-16T03:46:12;99008.00;;;2.87;100.00
42587;BME280;28216;53.362;-6.288;2023-01-16T03:51:22;99013.78;;;2.81;100.00
42587;BME280;28216;53.362;-6.288;2023-01-16T03:54:06;99017.63;;;2.77;100.00
42587;BME280;28216;53.362;-6.288;2023-01-16T03:56:43;99034.28;;;2.75;100.00
42587;BME280;28216;53.362;-6.288;2023-01-16T03:59:10;99031.03;;;2.73;100.00
42587;BME280;28216;53.362;-6.288;2023-01-16T04:01:58;99031.19;;;2.71;100.00
42587;BME280;28216;53.362;-6.288;2023-01-16T04:04:38;99036.81;;;2.67;100.00
42587;BME280;28216;53.362;-6.288;2023-01-16T04:09:49;99036.81;;;2.67;100.00
42587;BME280;28216;53.362;-6.288;2023-01-16T04:12:20;99035.50;;;2.63;100.00
42587;BME280;28216;53.362;-6.288;2023-01-16T04:14:53;99040.31;;;2.58;100.00
42587;BME280;28216;53.362;-6.288;2023-01-16T04:17:20;99041.41;;;2.55;100.00
42587;BME280;28216;53.362;-6.288;2023-01-16T04:19:46;99038.31;;;2.51;100.00
42587;BME280;28216;53.362;-6.288;2023-01-16T04:22:38;99041.72;;;2.52;100.00
42587;BME280;28216;53.362;-6.288;2023-01-16T04:25:06;99045.72;;;2.46;100.00
42587;BME280;28216;53.362;-6.288;2023-01-16T04:27:33;99047.78;;;2.43;100.00
42587;BME280;28216;53.362;-6.288;2023-01-16T04:29:58;99038.53;;;2.40;100.00
42587;BME280;28216;53.362;-6.288;2023-01-16T04:32:24;99045.78;;;2.37;100.00
42587;BME280;28216;53.362;-6.288;2023-01-16T04:34:49;99042.25;;;2.38;100.00
42587;BME280;28216;53.362;-6.288;2023-01-16T04:37:16;99040.78;;;2.35;100.00
42587;BME280;28216;53.362;-6.288;2023-01-16T04:39:42;99038.63;;;2.31;100.00
42587;BME280;28216;53.362;-6.288;2023-01-16T04:42:08;99042.03;;;2.31;100.00
42587;BME280;28216;53.362;-6.288;2023-01-16T04:44:34;99050.91;;;2.29;100.00
42587;BME280;28216;53.362;-6.288;2023-01-16T04:46:59;99057.47;;;2.23;100.00
42587;BME280;28216;53.362;-6.288;2023-01-16T04:49:24;99051.59;;;2.21;100.00
42587;BME280;28216;53.362;-6.288;2023-01-16T04:51:50;99054.47;;;2.18;100.00
42587;BME280;28216;53.362;-6.288;2023-01-16T04:54:17;99057.38;;;2.15;100.00
42587;BME280;28216;53.362;-6.288;2023-01-16T04:56:43;99058.84;;;2.17;100.00
42587;BME280;28216;53.362;-6.288;2023-01-16T04:59:09;99057.72;;;2.20;100.00
42587;BME280;28216;53.362;-6.288;2023-01-16T05:01:35;99064.53;;;2.21;100.00
42587;BME280;28216;53.362;-6.288;2023-01-16T05:04:04;99070.50;;;2.21;100.00
42587;BME280;28216;53.362;-6.288;2023-01-16T05:06:30;99061.78;;;2.22;100.00
42587;BME280;28216;53.362;-6.288;2023-01-16T05:08:56;99072.13;;;2.22;100.00
42587;BME280;28216;53.362;-6.288;2023-01-16T05:11:21;99070.00;;;2.18;100.00
42587;BME280;28216;53.362;-6.288;2023-01-16T05:13:47;99070.44;;;2.13;100.00
42587;BME280;28216;53.362;-6.288;2023-01-16T05:16:12;99067.72;;;2.15;100.00
42587;BME280;28216;53.362;-6.288;2023-01-16T05:18:37;99069.78;;;2.11;100.00
42587;BME280;28216;53.362;-6.288;2023-01-16T05:21:03;99078.63;;;2.09;100.00
42587;BME280;28216;53.362;-6.288;2023-01-16T05:23:33;99076.34;;;2.06;100.00
42587;BME280;28216;53.362;-6.288;2023-01-16T05:26:00;99075.69;;;2.04;100.00
42587;BME280;28216;53.362;-6.288;2023-01-16T05:28:26;99073.69;;;1.98;100.00
42587;BME280;28216;53.362;-6.288;2023-01-16T05:30:51;99073.81;;;1.96;100.00
42587;BME280;28216;53.362;-6.288;2023-01-16T05:33:17;99075.06;;;1.92;100.00
42587;BME280;28216;53.362;-6.288;2023-01-16T05:35:45;99075.34;;;1.89;100.00
42587;BME280;28216;53.362;-6.288;2023-01-16T05:38:10;99073.59;;;1.89;100.00
42587;BME280;28216;53.362;-6.288;2023-01-16T05:40:36;99078.75;;;1.89;100.00
42587;BME280;28216;53.362;-6.288;2023-01-16T05:43:01;99078.91;;;1.88;100.00
42587;BME280;28216;53.362;-6.288;2023-01-16T05:45:27;99074.53;;;1.88;100.00
42587;BME280;28216;53.362;-6.288;2023-01-16T05:47:52;99081.63;;;1.86;100.00
42587;BME280;28216;53.362;-6.288;2023-01-16T05:50:17;99087.91;;;1.84;100.00
42587;BME280;28216;53.362;-6.288;2023-01-16T05:52:43;99092.53;;;1.80;100.00
42587;BME280;28216;53.362;-6.288;2023-01-16T05:55:08;99091.06;;;1.78;100.00
42587;BME280;28216;53.362;-6.288;2023-01-16T05:57:34;99086.84;;;1.77;100.00
42587;BME280;28216;53.362;-6.288;2023-01-16T06:00:00;99089.72;;;1.74;100.00
42587;BME280;28216;53.362;-6.288;2023-01-16T06:02:25;99091.63;;;1.72;100.00
42587;BME280;28216;53.362;-6.288;2023-01-16T06:04:50;99099.38;;;1.72;100.00
42587;BME280;28216;53.362;-6.288;2023-01-16T06:07:17;99106.63;;;1.68;100.00
42587;BME280;28216;53.362;-6.288;2023-01-16T06:09:42;99108.38;;;1.68;100.00
42587;BME280;28216;53.362;-6.288;2023-01-16T06:12:15;99104.16;;;1.67;100.00
42587;BME280;28216;53.362;-6.288;2023-01-16T06:14:41;99101.19;;;1.62;100.00
42587;BME280;28216;53.362;-6.288;2023-01-16T06:17:06;99097.81;;;1.61;100.00
42587;BME280;28216;53.362;-6.288;2023-01-16T06:19:32;99093.75;;;1.58;100.00
42587;BME280;28216;53.362;-6.288;2023-01-16T06:21:57;99094.69;;;1.57;100.00
42587;BME280;28216;53.362;-6.288;2023-01-16T06:24:22;99098.09;;;1.58;100.00
42587;BME280;28216;53.362;-6.288;2023-01-16T06:26:48;99104.63;;;1.52;100.00
42587;BME280;28216;53.362;-6.288;2023-01-16T06:29:13;99105.47;;;1.53;100.00
42587;BME280;28216;53.362;-6.288;2023-01-16T06:31:39;99105.75;;;1.50;100.00
42587;BME280;28216;53.362;-6.288;2023-01-16T06:34:04;99107.63;;;1.48;100.00
42587;BME280;28216;53.362;-6.288;2023-01-16T06:36:30;99106.94;;;1.46;100.00
42587;BME280;28216;53.362;-6.288;2023-01-16T06:38:55;99109.66;;;1.44;100.00
42587;BME280;28216;53.362;-6.288;2023-01-16T06:41:21;99107.09;;;1.44;100.00
42587;BME280;28216;53.362;-6.288;2023-01-16T06:43:46;99103.03;;;1.42;100.00
42587;BME280;28216;53.362;-6.288;2023-01-16T06:46:12;99113.63;;;1.39;100.00
42587;BME280;28216;53.362;-6.288;2023-01-16T06:48:37;99104.69;;;1.33;100.00
42587;BME280;28216;53.362;-6.288;2023-01-16T06:51:04;99110.00;;;1.32;100.00
42587;BME280;28216;53.362;-6.288;2023-01-16T06:53:29;99112.72;;;1.30;100.00
42587;BME280;28216;53.362;-6.288;2023-01-16T06:55:55;99101.44;;;1.31;100.00
42587;BME280;28216;53.362;-6.288;2023-01-16T06:58:20;99104.44;;;1.26;100.00
42587;BME280;28216;53.362;-6.288;2023-01-16T07:00:46;99110.41;;;1.27;100.00
42587;BME280;28216;53.362;-6.288;2023-01-16T07:03:16;99107.16;;;1.25;100.00
42587;BME280;28216;53.362;-6.288;2023-01-16T07:05:43;99116.81;;;1.23;100.00
42587;BME280;28216;53.362;-6.288;2023-01-16T07:08:09;99107.44;;;1.22;100.00
42587;BME280;28216;53.362;-6.288;2023-01-16T07:10:35;99107.56;;;1.20;100.00
42587;BME280;28216;53.362;-6.288;2023-01-16T07:13:00;99111.78;;;1.21;100.00
42587;BME280;28216;53.362;-6.288;2023-01-16T07:15:26;99109.47;;;1.18;100.00
42587;BME280;28216;53.362;-6.288;2023-01-16T07:18:14;99115.19;;;1.22;100.00
42587;BME280;28216;53.362;-6.288;2023-01-16T07:21:02;99122.50;;;1.26;100.00
42587;BME280;28216;53.362;-6.288;2023-01-16T07:23:57;99128.19;;;1.30;100.00
42587;BME280;28216;53.362;-6.288;2023-01-16T07:26:25;99128.63;;;1.25;100.00
42587;BME280;28216;53.362;-6.288;2023-01-16T07:28:52;99135.81;;;1.22;100.00
42587;BME280;28216;53.362;-6.288;2023-01-16T07:31:20;99132.56;;;1.20;100.00
42587;BME280;28216;53.362;-6.288;2023-01-16T07:33:48;99127.56;;;1.18;100.00
42587;BME280;28216;53.362;-6.288;2023-01-16T07:36:14;99134.75;;;1.15;100.00
42587;BME280;28216;53.362;-6.288;2023-01-16T07:38:39;99136.00;;;1.11;100.00
42587;BME280;28216;53.362;-6.288;2023-01-16T07:41:04;99140.06;;;1.04;100.00
42587;BME280;28216;53.362;-6.288;2023-01-16T07:43:30;99135.47;;;0.98;100.00
42587;BME280;28216;53.362;-6.288;2023-01-16T07:45:55;99143.91;;;0.90;100.00
42587;BME280;28216;53.362;-6.288;2023-01-16T07:48:22;99128.56;;;0.88;100.00
42587;BME280;28216;53.362;-6.288;2023-01-16T07:50:52;99133.03;;;0.86;100.00
42587;BME280;28216;53.362;-6.288;2023-01-16T07:53:19;99137.94;;;0.80;100.00
42587;BME280;28216;53.362;-6.288;2023-01-16T07:55:49;99133.59;;;0.80;100.00
42587;BME280;28216;53.362;-6.288;2023-01-16T07:58:15;99135.50;;;0.78;100.00
42587;BME280;28216;53.362;-6.288;2023-01-16T08:00:52;99142.78;;;0.73;100.00
42587;BME280;28216;53.362;-6.288;2023-01-16T08:03:18;99149.56;;;0.74;100.00
42587;BME280;28216;53.362;-6.288;2023-01-16T08:05:44;99158.84;;;0.77;100.00
42587;BME280;28216;53.362;-6.288;2023-01-16T08:08:11;99169.53;;;0.72;100.00
42587;BME280;28216;53.362;-6.288;2023-01-16T08:10:37;99161.66;;;0.74;100.00
42587;BME280;28216;53.362;-6.288;2023-01-16T08:13:03;99154.88;;;0.73;100.00
42587;BME280;28216;53.362;-6.288;2023-01-16T08:15:29;99157.44;;;0.73;100.00
42587;BME280;28216;53.362;-6.288;2023-01-16T08:17:54;99161.25;;;0.69;100.00
42587;BME280;28216;53.362;-6.288;2023-01-16T08:20:20;99161.94;;;0.71;100.00
42587;BME280;28216;53.362;-6.288;2023-01-16T08:22:48;99163.03;;;0.68;100.00
42587;BME280;28216;53.362;-6.288;2023-01-16T08:25:16;99160.84;;;0.63;100.00
42587;BME280;28216;53.362;-6.288;2023-01-16T08:27:42;99161.66;;;0.64;100.00
42587;BME280;28216;53.362;-6.288;2023-01-16T08:30:08;99161.66;;;0.64;100.00
42587;BME280;28216;53.362;-6.288;2023-01-16T08:32:34;99162.75;;;0.61;100.00
42587;BME280;28216;53.362;-6.288;2023-01-16T08:35:00;99159.34;;;0.61;100.00
42587;BME280;28216;53.362;-6.288;2023-01-16T08:37:29;99160.31;;;0.60;100.00
42587;BME280;28216;53.362;-6.288;2023-01-16T08:39:55;99165.72;;;0.57;100.00
42587;BME280;28216;53.362;-6.288;2023-01-16T08:42:20;99169.13;;;0.57;100.00
42587;BME280;28216;53.362;-6.288;2023-01-16T08:45:04;99173.19;;;0.50;100.00
42587;BME280;28216;53.362;-6.288;2023-01-16T08:47:48;99172.09;;;0.53;100.00
42587;BME280;28216;53.362;-6.288;2023-01-16T08:50:32;99172.25;;;0.51;100.00
42587;BME280;28216;53.362;-6.288;2023-01-16T08:53:16;99182.28;;;0.54;100.00
42587;BME280;28216;53.362;-6.288;2023-01-16T08:55:42;99182.28;;;0.54;100.00
42587;BME280;28216;53.362;-6.288;2023-01-16T08:58:07;99190.16;;;0.53;100.00
42587;BME280;28216;53.362;-6.288;2023-01-16T09:00:33;99193.56;;;0.53;100.00
42587;BME280;28216;53.362;-6.288;2023-01-16T09:02:59;99194.38;;;0.54;100.00
42587;BME280;28216;53.362;-6.288;2023-01-16T09:05:27;99192.34;;;0.57;100.00
42587;BME280;28216;53.362;-6.288;2023-01-16T09:07:53;99196.81;;;0.55;100.00
42587;BME280;28216;53.362;-6.288;2023-01-16T09:10:18;99196.53;;;0.58;100.00
42587;BME280;28216;53.362;-6.288;2023-01-16T09:12:44;99204.16;;;0.60;100.00
42587;BME280;28216;53.362;-6.288;2023-01-16T09:15:28;99196.41;;;0.60;100.00
42587;BME280;28216;53.362;-6.288;2023-01-16T09:17:54;99205.78;;;0.61;100.00
42587;BME280;28216;53.362;-6.288;2023-01-16T09:20:19;99206.31;;;0.64;100.00
42587;BME280;28216;53.362;-6.288;2023-01-16T09:22:45;99203.59;;;0.66;100.00
42587;BME280;28216;53.362;-6.288;2023-01-16T09:25:10;99194.09;;;0.67;100.00
42587;BME280;28216;53.362;-6.288;2023-01-16T09:27:36;99201.84;;;0.67;100.00
42587;BME280;28216;53.362;-6.288;2023-01-16T09:30:01;99199.53;;;0.73;100.00
42587;BME280;28216;53.362;-6.288;2023-01-16T09:32:27;99198.84;;;0.71;100.00
42587;BME280;28216;53.362;-6.288;2023-01-16T09:34:53;99206.59;;;0.71;100.00
42587;BME280;28216;53.362;-6.288;2023-01-16T09:37:19;99197.09;;;0.72;100.00
42587;BME280;28216;53.362;-6.288;2023-01-16T09:39:44;99200.94;;;0.77;100.00
42587;BME280;28216;53.362;-6.288;2023-01-16T09:42:36;99201.22;;;0.84;100.00
42587;BME280;28216;53.362;-6.288;2023-01-16T09:45:28;99204.88;;;0.91;100.00
42587;BME280;28216;53.362;-6.288;2023-01-16T09:48:00;99208.94;;;0.93;100.00
42587;BME280;28216;53.362;-6.288;2023-01-16T09:50:40;99208.53;;;0.98;100.00
42587;BME280;28216;53.362;-6.288;2023-01-16T09:53:17;99213.28;;;1.03;100.00
42587;BME280;28216;53.362;-6.288;2023-01-16T09:56:02;99216.28;;;1.08;100.00
42587;BME280;28216;53.362;-6.288;2023-01-16T10:01:36;99218.19;;;1.15;100.00
42587;BME280;28216;53.362;-6.288;2023-01-16T10:04:19;99224.16;;;1.16;100.00
42587;BME280;28216;53.362;-6.288;2023-01-16T10:12:26;99222.09;;;1.29;100.00
42587;BME280;28216;53.362;-6.288;2023-01-16T10:15:09;99217.19;;;1.36;100.00
42587;BME280;28216;53.362;-6.288;2023-01-16T10:17:40;99218.56;;;1.40;100.00
42587;BME280;28216;53.362;-6.288;2023-01-16T10:25:22;99222.22;;;1.56;100.00
42587;BME280;28216;53.362;-6.288;2023-01-16T10:28:01;99214.06;;;1.61;100.00
42587;BME280;28216;53.362;-6.288;2023-01-16T10:30:37;99217.03;;;1.66;100.00
42587;BME280;28216;53.362;-6.288;2023-01-16T10:33:18;99225.84;;;1.73;100.00
42587;BME280;28216;53.362;-6.288;2023-01-16T10:35:48;99222.84;;;1.78;100.00
42587;BME280;28216;53.362;-6.288;2023-01-16T10:38:37;99220.66;;;1.83;100.00
42587;BME280;28216;53.362;-6.288;2023-01-16T10:41:05;99219.56;;;1.85;100.00
42587;BME280;28216;53.362;-6.288;2023-01-16T10:43:54;99214.63;;;1.92;100.00
42587;BME280;28216;53.362;-6.288;2023-01-16T10:46:40;99211.09;;;1.93;100.00
42587;BME280;28216;53.362;-6.288;2023-01-16T10:49:25;99207.13;;;1.99;100.00
42587;BME280;28216;53.362;-6.288;2023-01-16T10:51:56;99205.44;;;2.07;100.00
42587;BME280;28216;53.362;-6.288;2023-01-16T10:54:23;99209.22;;;2.13;100.00
42587;BME280;28216;53.362;-6.288;2023-01-16T10:56:49;99210.97;;;2.22;100.00
42587;BME280;28216;53.362;-6.288;2023-01-16T10:59:14;99212.19;;;2.28;100.00
42587;BME280;28216;53.362;-6.288;2023-01-16T11:01:41;99208.63;;;2.29;100.00
42587;BME280;28216;53.362;-6.288;2023-01-16T11:04:10;99203.84;;;2.34;100.00
42587;BME280;28216;53.362;-6.288;2023-01-16T11:06:36;99199.34;;;2.36;100.00
42587;BME280;28216;53.362;-6.288;2023-01-16T11:11:41;99207.47;;;2.41;100.00
42587;BME280;28216;53.362;-6.288;2023-01-16T11:14:35;99210.88;;;2.41;100.00
42587;BME280;28216;53.362;-6.288;2023-01-16T11:17:40;99202.16;;;2.42;100.00
42587;BME280;28216;53.362;-6.288;2023-01-16T11:20:35;99205.56;;;2.43;100.00
42587;BME280;28216;53.362;-6.288;2023-01-16T11:25:41;99189.91;;;2.44;100.00
42587;BME280;28216;53.362;-6.288;2023-01-16T11:28:12;99188.78;;;2.47;100.00
42587;BME280;28216;53.362;-6.288;2023-01-16T11:30:44;99182.94;;;2.45;100.00
42587;BME280;28216;53.362;-6.288;2023-01-16T11:33:19;99180.06;;;2.48;100.00
42587;BME280;28216;53.362;-6.288;2023-01-16T11:35:57;99171.34;;;2.49;100.00
42587;BME280;28216;53.362;-6.288;2023-01-16T11:38:26;99172.03;;;2.51;100.00
42587;BME280;28216;53.362;-6.288;2023-01-16T11:40:55;99161.00;;;2.49;100.00
42587;BME280;28216;53.362;-6.288;2023-01-16T11:43:23;99161.81;;;2.49;100.00
42587;BME280;28216;53.362;-6.288;2023-01-16T11:46:20;99158.13;;;2.52;100.00
42587;BME280;28216;53.362;-6.288;2023-01-16T11:48:52;99151.47;;;2.49;100.00
42587;BME280;28216;53.362;-6.288;2023-01-16T11:51:20;99153.09;;;2.50;100.00
42587;BME280;28216;53.362;-6.288;2023-01-16T11:53:49;99141.13;;;2.49;100.00
42587;BME280;28216;53.362;-6.288;2023-01-16T12:04:32;99140.31;;;2.67;100.00
42587;BME280;28216;53.362;-6.288;2023-01-16T12:07:23;99136.59;;;2.69;100.00
42587;BME280;28216;53.362;-6.288;2023-01-16T12:10:04;99136.47;;;2.71;100.00
42587;BME280;28216;53.362;-6.288;2023-01-16T12:12:36;99130.84;;;2.75;100.00
42587;BME280;28216;53.362;-6.288;2023-01-16T12:15:37;99121.50;;;2.82;100.00
42587;BME280;28216;53.362;-6.288;2023-01-16T12:20:53;99128.03;;;2.86;100.00
42587;BME280;28216;53.362;-6.288;2023-01-16T12:23:32;99126.41;;;2.85;100.00
42587;BME280;28216;53.362;-6.288;2023-01-16T12:29:00;99114.56;;;2.83;100.00
42587;BME280;28216;53.362;-6.288;2023-01-16T12:42:35;99103.84;;;2.78;100.00
42587;BME280;28216;53.362;-6.288;2023-01-16T12:45:31;99092.84;;;2.76;100.00
42587;BME280;28216;53.362;-6.288;2023-01-16T12:48:37;99089.59;;;2.74;100.00
42587;BME280;28216;53.362;-6.288;2023-01-16T12:51:34;99086.69;;;2.77;100.00
42587;BME280;28216;53.362;-6.288;2023-01-16T12:57:14;99084.09;;;2.77;100.00
42587;BME280;28216;53.362;-6.288;2023-01-16T12:59:54;99076.50;;;2.75;100.00
42587;BME280;28216;53.362;-6.288;2023-01-16T13:02:45;99072.13;;;2.76;100.00
42587;BME280;28216;53.362;-6.288;2023-01-16T13:05:21;99068.59;;;2.77;100.00
42587;BME280;28216;53.362;-6.288;2023-01-16T13:07:59;99063.41;;;2.77;100.00
42587;BME280;28216;53.362;-6.288;2023-01-16T13:10:35;99064.22;;;2.77;100.00
42587;BME280;28216;53.362;-6.288;2023-01-16T13:13:26;99056.44;;;2.77;100.00
42587;BME280;28216;53.362;-6.288;2023-01-16T13:16:19;99052.38;;;2.75;100.00
42587;BME280;28216;53.362;-6.288;2023-01-16T13:19:21;99051.56;;;2.74;100.00
42587;BME280;28216;53.362;-6.288;2023-01-16T13:24:32;99047.06;;;2.76;100.00
42587;BME280;28216;53.362;-6.288;2023-01-16T13:27:04;99049.34;;;2.79;100.00
42587;BME280;28216;53.362;-6.288;2023-01-16T13:29:36;99044.19;;;2.79;100.00
42587;BME280;28216;53.362;-6.288;2023-01-16T13:32:14;99036.72;;;2.76;100.00
42587;BME280;28216;53.362;-6.288;2023-01-16T13:34:48;99039.59;;;2.73;100.00
42587;BME280;28216;53.362;-6.288;2023-01-16T13:43:18;99027.97;;;2.77;100.00
42587;BME280;28216;53.362;-6.288;2023-01-16T13:46:04;99025.91;;;2.81;100.00
42587;BME280;28216;53.362;-6.288;2023-01-16T13:48:34;99020.44;;;2.84;100.00
42587;BME280;28216;53.362;-6.288;2023-01-16T13:51:11;99025.44;;;2.85;100.00
42587;BME280;28216;53.362;-6.288;2023-01-16T13:53:38;99015.59;;;2.89;100.00
42587;BME280;28216;53.362;-6.288;2023-01-16T13:56:16;99018.53;;;2.94;100.00
42587;BME280;28216;53.362;-6.288;2023-01-16T13:58:47;99016.50;;;2.98;100.00
42587;BME280;28216;53.362;-6.288;2023-01-16T14:06:47;99002.59;;;2.99;100.00
42587;BME280;28216;53.362;-6.288;2023-01-16T14:09:23;98995.91;;;2.96;100.00
42587;BME280;28216;53.362;-6.288;2023-01-16T14:14:51;98993.94;;;2.90;100.00
42587;BME280;28216;53.362;-6.288;2023-01-16T14:23:02;98987.28;;;2.87;100.00
42587;BME280;28216;53.362;-6.288;2023-01-16T14:25:52;98989.06;;;2.87;100.00
42587;BME280;28216;53.362;-6.288;2023-01-16T14:28:21;98990.69;;;2.88;100.00
42587;BME280;28216;53.362;-6.288;2023-01-16T14:30:48;98994.91;;;2.89;100.00
42587;BME280;28216;53.362;-6.288;2023-01-16T14:33:19;98996.66;;;2.88;100.00
42587;BME280;28216;53.362;-6.288;2023-01-16T14:35:49;98986.66;;;2.94;100.00
42587;BME280;28216;53.362;-6.288;2023-01-16T14:38:23;98986.66;;;2.94;100.00
42587;BME280;28216;53.362;-6.288;2023-01-16T14:40:56;98984.59;;;2.97;100.00
42587;BME280;28216;53.362;-6.288;2023-01-16T15:00:57;98964.28;;;2.84;100.00
42587;BME280;28216;53.362;-6.288;2023-01-16T15:04:01;98958.31;;;2.84;100.00
42587;BME280;28216;53.362;-6.288;2023-01-16T15:06:44;98953.28;;;2.82;100.00
42587;BME280;28216;53.362;-6.288;2023-01-16T15:09:27;98954.41;;;2.80;100.00
42587;BME280;28216;53.362;-6.288;2023-01-16T15:12:01;98943.53;;;2.76;100.00
42587;BME280;28216;53.362;-6.288;2023-01-16T15:14:28;98943.53;;;2.76;100.00